sensor_id;sensor_type;location;lat;lon;timestamp;pressure;altitude;pressure_sealevel;temperature;humidity
40946;BME280;55635;50.264;11.918;2023-03-25T00:01:48;94720.38;;;9.97;96.38
40946;BME280;55635;50.264;11.918;2023-03-25T00:04:29;94723.25;;;9.96;95.72
40946;BME280;55635;50.264;11.918;2023-03-25T00:07:10;94722.66;;;10.26;93.86
40946;BME280;55635;50.264;11.918;2023-03-25T00:09:51;94710.44;;;10.06;94.08
40946;BME280;55635;50.264;11.918;2023-03-25T00:12:32;94727.53;;;9.97;93.13
40946;BME280;55635;50.264;11.918;2023-03-25T00:15:13;94729.97;;;9.92;93.59
40946;BME280;55635;50.264;11.918;2023-03-25T00:17:59;94712.16;;;9.40;95.92
40946;BME280;55635;50.264;11.918;2023-03-25T00:20:41;94714.44;;;9.49;96.16
40946;BME280;55635;50.264;11.918;2023-03-25T00:23:26;94733.72;;;9.30;96.05
40946;BME280;55635;50.264;11.918;2023-03-25T00:26:07;94717.47;;;9.40;96.67
40946;BME280;55635;50.264;11.918;2023-03-25T00:28:48;94732.09;;;9.42;96.84
40946;BME280;55635;50.264;11.918;2023-03-25T00:31:29;94708.44;;;9.14;97.98
40946;BME280;55635;50.264;11.918;2023-03-25T00:34:10;94724.59;;;8.85;99.99
40946;BME280;55635;50.264;11.918;2023-03-25T00:36:54;94712.59;;;8.83;100.00
40946;BME280;55635;50.264;11.918;2023-03-25T00:39:36;94710.41;;;8.99;99.94
40946;BME280;55635;50.264;11.918;2023-03-25T00:42:17;94707.13;;;8.91;99.72
40946;BME280;55635;50.264;11.918;2023-03-25T00:45:06;94690.78;;;8.67;99.68
40946;BME280;55635;50.264;11.918;2023-03-25T00:47:47;94679.25;;;8.88;99.51
40946;BME280;55635;50.264;11.918;2023-03-25T00:50:28;94675.13;;;8.72;98.65
40946;BME280;55635;50.264;11.918;2023-03-25T00:53:09;94681.94;;;8.54;99.63
40946;BME280;55635;50.264;11.918;2023-03-25T00:55:50;94684.03;;;8.58;99.09
40946;BME280;55635;50.264;11.918;2023-03-25T00:58:31;94662.84;;;8.52;99.04
40946;BME280;55635;50.264;11.918;2023-03-25T01:01:19;94661.22;;;8.51;99.77
40946;BME280;55635;50.264;11.918;2023-03-25T01:04:02;94656.50;;;8.40;98.54
40946;BME280;55635;50.264;11.918;2023-03-25T01:06:44;94658.88;;;8.28;99.78
40946;BME280;55635;50.264;11.918;2023-03-25T01:09:25;94660.16;;;8.45;98.76
40946;BME280;55635;50.264;11.918;2023-03-25T01:12:06;94658.69;;;8.36;98.71
40946;BME280;55635;50.264;11.918;2023-03-25T01:14:48;94645.59;;;8.56;96.96
40946;BME280;55635;50.264;11.918;2023-03-25T01:17:28;94644.44;;;8.71;95.95
40946;BME280;55635;50.264;11.918;2023-03-25T01:20:10;94641.16;;;8.63;95.23
40946;BME280;55635;50.264;11.918;2023-03-25T01:22:51;94648.75;;;8.79;94.75
40946;BME280;55635;50.264;11.918;2023-03-25T01:25:32;94656.28;;;8.41;95.61
40946;BME280;55635;50.264;11.918;2023-03-25T01:28:13;94640.75;;;8.66;95.63
40946;BME280;55635;50.264;11.918;2023-03-25T01:31:03;94630.09;;;9.00;92.69
40946;BME280;55635;50.264;11.918;2023-03-25T01:33:45;94634.09;;;8.77;93.20
40946;BME280;55635;50.264;11.918;2023-03-25T01:36:26;94623.81;;;9.01;92.01
40946;BME280;55635;50.264;11.918;2023-03-25T01:39:10;94633.78;;;9.12;91.03
40946;BME280;55635;50.264;11.918;2023-03-25T01:41:51;94628.28;;;9.07;90.69
40946;BME280;55635;50.264;11.918;2023-03-25T01:47:18;94632.50;;;8.41;94.17
40946;BME280;55635;50.264;11.918;2023-03-25T01:49:59;94648.91;;;8.71;93.56
40946;BME280;55635;50.264;11.918;2023-03-25T01:52:45;94653.91;;;9.07;92.12
40946;BME280;55635;50.264;11.918;2023-03-25T01:55:28;94655.72;;;9.06;92.30
40946;BME280;55635;50.264;11.918;2023-03-25T01:58:15;94660.03;;;9.14;92.36
40946;BME280;55635;50.264;11.918;2023-03-25T02:00:57;94657.94;;;8.96;94.47
40946;BME280;55635;50.264;11.918;2023-03-25T02:03:41;94653.03;;;8.93;95.60
40946;BME280;55635;50.264;11.918;2023-03-25T02:06:38;94664.16;;;8.75;97.31
40946;BME280;55635;50.264;11.918;2023-03-25T02:09:23;94641.91;;;8.50;98.87
40946;BME280;55635;50.264;11.918;2023-03-25T02:12:05;94648.28;;;8.69;99.06
40946;BME280;55635;50.264;11.918;2023-03-25T02:14:46;94639.13;;;8.65;99.93
40946;BME280;55635;50.264;11.918;2023-03-25T02:40:05;94604.25;;;8.01;100.00
40946;BME280;55635;50.264;11.918;2023-03-25T02:42:52;94619.72;;;8.04;100.00
40946;BME280;55635;50.264;11.918;2023-03-25T02:45:51;94595.53;;;8.00;100.00
40946;BME280;55635;50.264;11.918;2023-03-25T02:49:04;94609.53;;;8.29;100.00
40946;BME280;55635;50.264;11.918;2023-03-25T02:51:55;94592.38;;;8.18;100.00
40946;BME280;55635;50.264;11.918;2023-03-25T02:54:41;94590.44;;;8.33;100.00
40946;BME280;55635;50.264;11.918;2023-03-25T02:57:25;94586.03;;;8.12;100.00
40946;BME280;55635;50.264;11.918;2023-03-25T03:00:10;94588.03;;;8.10;100.00
40946;BME280;55635;50.264;11.918;2023-03-25T03:03:02;94577.16;;;8.27;100.00
40946;BME280;55635;50.264;11.918;2023-03-25T03:05:49;94574.91;;;8.23;100.00
40946;BME280;55635;50.264;11.918;2023-03-25T03:09:04;94560.47;;;8.13;100.00
40946;BME280;55635;50.264;11.918;2023-03-25T03:15:10;94584.75;;;8.36;99.94
40946;BME280;55635;50.264;11.918;2023-03-25T03:21:36;94606.38;;;8.53;96.95
40946;BME280;55635;50.264;11.918;2023-03-25T03:24:32;94588.13;;;8.64;97.44
40946;BME280;55635;50.264;11.918;2023-03-25T03:27:30;94587.88;;;8.53;98.28
40946;BME280;55635;50.264;11.918;2023-03-25T03:30:51;94564.28;;;8.51;99.62
40946;BME280;55635;50.264;11.918;2023-03-25T03:33:44;94593.53;;;8.43;99.69
40946;BME280;55635;50.264;11.918;2023-03-25T03:36:35;94577.53;;;8.58;99.15
40946;BME280;55635;50.264;11.918;2023-03-25T03:39:32;94583.06;;;8.76;98.74
40946;BME280;55635;50.264;11.918;2023-03-25T03:42:57;94588.53;;;8.74;98.51
40946;BME280;55635;50.264;11.918;2023-03-25T03:45:47;94600.50;;;8.64;96.57
40946;BME280;55635;50.264;11.918;2023-03-25T03:48:41;94597.75;;;8.92;94.64
40946;BME280;55635;50.264;11.918;2023-03-25T03:51:36;94596.88;;;8.78;92.92
40946;BME280;55635;50.264;11.918;2023-03-25T03:54:31;94613.41;;;9.00;92.88
40946;BME280;55635;50.264;11.918;2023-03-25T03:57:58;94598.56;;;9.05;92.98
40946;BME280;55635;50.264;11.918;2023-03-25T04:00:51;94609.41;;;9.17;91.56
40946;BME280;55635;50.264;11.918;2023-03-25T04:03:54;94620.34;;;9.07;92.19
40946;BME280;55635;50.264;11.918;2023-03-25T04:07:25;94620.56;;;9.19;91.10
40946;BME280;55635;50.264;11.918;2023-03-25T04:10:25;94621.75;;;9.03;90.58
40946;BME280;55635;50.264;11.918;2023-03-25T04:13:15;94628.69;;;9.04;90.79
40946;BME280;55635;50.264;11.918;2023-03-25T04:15:59;94639.28;;;9.24;90.00
40946;BME280;55635;50.264;11.918;2023-03-25T04:18:40;94642.75;;;9.24;89.27
40946;BME280;55635;50.264;11.918;2023-03-25T04:21:23;94628.13;;;9.35;89.20
40946;BME280;55635;50.264;11.918;2023-03-25T04:24:05;94651.72;;;9.30;88.29
40946;BME280;55635;50.264;11.918;2023-03-25T04:26:47;94634.41;;;9.21;88.38
40946;BME280;55635;50.264;11.918;2023-03-25T04:29:30;94656.00;;;9.38;88.13
40946;BME280;55635;50.264;11.918;2023-03-25T04:32:11;94651.13;;;9.35;88.23
40946;BME280;55635;50.264;11.918;2023-03-25T04:34:54;94644.00;;;9.28;88.22
40946;BME280;55635;50.264;11.918;2023-03-25T04:37:37;94641.28;;;8.96;89.08
40946;BME280;55635;50.264;11.918;2023-03-25T04:40:19;94643.38;;;8.66;91.45
40946;BME280;55635;50.264;11.918;2023-03-25T04:43:00;94627.25;;;9.08;90.74
40946;BME280;55635;50.264;11.918;2023-03-25T04:45:42;94632.28;;;8.77;91.68
40946;BME280;55635;50.264;11.918;2023-03-25T04:48:29;94638.13;;;8.72;93.32
40946;BME280;55635;50.264;11.918;2023-03-25T04:51:12;94641.59;;;8.73;91.96
40946;BME280;55635;50.264;11.918;2023-03-25T04:53:53;94637.81;;;8.48;92.45
40946;BME280;55635;50.264;11.918;2023-03-25T04:56:34;94652.28;;;8.52;92.73
40946;BME280;55635;50.264;11.918;2023-03-25T04:59:17;94629.81;;;8.75;92.11
40946;BME280;55635;50.264;11.918;2023-03-25T05:01:58;94643.03;;;8.75;90.78
40946;BME280;55635;50.264;11.918;2023-03-25T05:04:40;94644.72;;;8.90;91.04
40946;BME280;55635;50.264;11.918;2023-03-25T05:07:22;94648.56;;;8.94;90.24
40946;BME280;55635;50.264;11.918;2023-03-25T05:10:03;94642.50;;;9.00;90.35
40946;BME280;55635;50.264;11.918;2023-03-25T05:12:44;94649.13;;;8.76;91.34
40946;BME280;55635;50.264;11.918;2023-03-25T05:15:25;94652.97;;;8.67;93.15
40946;BME280;55635;50.264;11.918;2023-03-25T05:18:13;94644.44;;;8.65;94.10
40946;BME280;55635;50.264;11.918;2023-03-25T05:20:54;94634.22;;;8.55;92.64
40946;BME280;55635;50.264;11.918;2023-03-25T05:23:36;94630.69;;;8.42;91.97
40946;BME280;55635;50.264;11.918;2023-03-25T05:26:17;94632.22;;;8.64;90.91
40946;BME280;55635;50.264;11.918;2023-03-25T05:29:04;94631.00;;;8.66;90.12
40946;BME280;55635;50.264;11.918;2023-03-25T05:31:46;94644.44;;;8.65;89.72
40946;BME280;55635;50.264;11.918;2023-03-25T05:34:28;94642.38;;;8.67;90.18
40946;BME280;55635;50.264;11.918;2023-03-25T05:37:11;94634.81;;;8.57;90.67
40946;BME280;55635;50.264;11.918;2023-03-25T05:39:52;94644.56;;;8.57;90.73
40946;BME280;55635;50.264;11.918;2023-03-25T05:42:33;94652.34;;;8.71;90.42
40946;BME280;55635;50.264;11.918;2023-03-25T05:45:15;94657.25;;;8.74;90.28
40946;BME280;55635;50.264;11.918;2023-03-25T05:47:56;94668.31;;;8.44;91.63
40946;BME280;55635;50.264;11.918;2023-03-25T05:50:39;94671.91;;;8.08;90.70
40946;BME280;55635;50.264;11.918;2023-03-25T05:53:22;94659.88;;;7.99;90.31
40946;BME280;55635;50.264;11.918;2023-03-25T05:56:03;94662.00;;;7.83;90.74
40946;BME280;55635;50.264;11.918;2023-03-25T05:58:49;94650.38;;;7.77;91.14
40946;BME280;55635;50.264;11.918;2023-03-25T06:01:31;94665.03;;;7.86;92.08
40946;BME280;55635;50.264;11.918;2023-03-25T06:04:13;94671.38;;;7.64;93.04
40946;BME280;55635;50.264;11.918;2023-03-25T06:06:56;94678.44;;;7.85;91.47
40946;BME280;55635;50.264;11.918;2023-03-25T06:09:37;94674.06;;;7.98;91.66
40946;BME280;55635;50.264;11.918;2023-03-25T06:12:26;94670.09;;;8.09;93.19
40946;BME280;55635;50.264;11.918;2023-03-25T06:15:09;94663.88;;;8.23;92.29
40946;BME280;55635;50.264;11.918;2023-03-25T06:17:50;94677.47;;;8.20;91.70
40946;BME280;55635;50.264;11.918;2023-03-25T06:20:31;94670.25;;;8.01;92.26
40946;BME280;55635;50.264;11.918;2023-03-25T06:23:13;94662.59;;;8.12;92.25
40946;BME280;55635;50.264;11.918;2023-03-25T06:25:54;94676.47;;;8.21;91.36
40946;BME280;55635;50.264;11.918;2023-03-25T06:28:35;94682.31;;;8.16;90.72
40946;BME280;55635;50.264;11.918;2023-03-25T06:31:20;94678.88;;;8.22;90.79
40946;BME280;55635;50.264;11.918;2023-03-25T06:34:02;94677.03;;;8.16;90.21
40946;BME280;55635;50.264;11.918;2023-03-25T06:36:43;94683.91;;;8.11;90.33
40946;BME280;55635;50.264;11.918;2023-03-25T06:39:24;94682.78;;;8.27;90.47
40946;BME280;55635;50.264;11.918;2023-03-25T06:42:06;94684.94;;;8.38;90.30
40946;BME280;55635;50.264;11.918;2023-03-25T06:45:04;94686.09;;;8.29;90.36
40946;BME280;55635;50.264;11.918;2023-03-25T06:47:59;94688.53;;;8.30;91.49
40946;BME280;55635;50.264;11.918;2023-03-25T06:50:40;94683.50;;;8.42;89.69
40946;BME280;55635;50.264;11.918;2023-03-25T06:53:21;94665.88;;;8.49;89.91
40946;BME280;55635;50.264;11.918;2023-03-25T06:56:02;94683.78;;;8.26;89.09
40946;BME280;55635;50.264;11.918;2023-03-25T06:58:43;94675.16;;;8.32;89.95
40946;BME280;55635;50.264;11.918;2023-03-25T07:01:23;94679.25;;;8.41;90.37
40946;BME280;55635;50.264;11.918;2023-03-25T07:04:04;94677.91;;;8.23;91.88
40946;BME280;55635;50.264;11.918;2023-03-25T07:06:45;94686.03;;;8.22;91.54
40946;BME280;55635;50.264;11.918;2023-03-25T07:09:26;94668.09;;;8.17;90.76
40946;BME280;55635;50.264;11.918;2023-03-25T07:12:07;94684.19;;;8.57;90.23
40946;BME280;55635;50.264;11.918;2023-03-25T07:14:53;94681.38;;;8.58;90.86
40946;BME280;55635;50.264;11.918;2023-03-25T07:17:34;94689.84;;;8.47;89.77
40946;BME280;55635;50.264;11.918;2023-03-25T07:20:15;94703.16;;;8.67;88.36
40946;BME280;55635;50.264;11.918;2023-03-25T07:22:56;94695.25;;;8.67;87.36
40946;BME280;55635;50.264;11.918;2023-03-25T07:25:37;94696.03;;;8.61;88.53
40946;BME280;55635;50.264;11.918;2023-03-25T07:28:18;94700.78;;;8.38;88.55
40946;BME280;55635;50.264;11.918;2023-03-25T07:31:01;94707.06;;;8.37;87.54
40946;BME280;55635;50.264;11.918;2023-03-25T07:33:45;94717.31;;;8.53;88.28
40946;BME280;55635;50.264;11.918;2023-03-25T07:36:26;94717.31;;;8.53;87.53
40946;BME280;55635;50.264;11.918;2023-03-25T07:39:07;94728.47;;;8.48;86.95
40946;BME280;55635;50.264;11.918;2023-03-25T07:41:48;94735.91;;;8.72;87.87
40946;BME280;55635;50.264;11.918;2023-03-25T07:44:58;94734.00;;;8.60;89.02
40946;BME280;55635;50.264;11.918;2023-03-25T07:47:39;94734.09;;;8.39;89.62
40946;BME280;55635;50.264;11.918;2023-03-25T07:50:22;94737.81;;;8.51;88.64
40946;BME280;55635;50.264;11.918;2023-03-25T07:53:03;94745.53;;;8.25;90.00
40946;BME280;55635;50.264;11.918;2023-03-25T07:55:44;94741.97;;;8.32;89.60
40946;BME280;55635;50.264;11.918;2023-03-25T07:58:26;94737.38;;;8.41;89.38
40946;BME280;55635;50.264;11.918;2023-03-25T08:01:07;94739.81;;;8.77;88.20
40946;BME280;55635;50.264;11.918;2023-03-25T08:03:48;94749.81;;;8.88;88.04
40946;BME280;55635;50.264;11.918;2023-03-25T08:06:29;94729.59;;;8.67;85.30
40946;BME280;55635;50.264;11.918;2023-03-25T08:09:10;94746.25;;;8.67;84.90
40946;BME280;55635;50.264;11.918;2023-03-25T08:11:51;94725.59;;;8.84;85.48
40946;BME280;55635;50.264;11.918;2023-03-25T08:14:32;94744.53;;;8.88;85.69
40946;BME280;55635;50.264;11.918;2023-03-25T08:17:13;94749.16;;;8.79;85.15
40946;BME280;55635;50.264;11.918;2023-03-25T08:19:54;94741.31;;;8.92;84.59
40946;BME280;55635;50.264;11.918;2023-03-25T08:22:35;94748.38;;;8.85;86.82
40946;BME280;55635;50.264;11.918;2023-03-25T08:25:16;94731.66;;;9.19;85.34
40946;BME280;55635;50.264;11.918;2023-03-25T08:27:57;94747.03;;;9.02;86.73
40946;BME280;55635;50.264;11.918;2023-03-25T08:30:38;94738.22;;;9.43;84.30
40946;BME280;55635;50.264;11.918;2023-03-25T08:33:21;94753.47;;;9.34;84.76
40946;BME280;55635;50.264;11.918;2023-03-25T08:36:09;94733.16;;;8.94;87.24
40946;BME280;55635;50.264;11.918;2023-03-25T08:38:53;94742.81;;;9.08;86.32
40946;BME280;55635;50.264;11.918;2023-03-25T08:41:34;94743.31;;;9.38;86.33
40946;BME280;55635;50.264;11.918;2023-03-25T08:44:18;94735.38;;;9.38;84.11
40946;BME280;55635;50.264;11.918;2023-03-25T08:46:59;94733.63;;;9.84;84.37
40946;BME280;55635;50.264;11.918;2023-03-25T08:49:40;94733.56;;;9.58;85.68
40946;BME280;55635;50.264;11.918;2023-03-25T08:52:21;94733.16;;;9.48;86.63
40946;BME280;55635;50.264;11.918;2023-03-25T08:55:04;94732.97;;;9.56;84.56
40946;BME280;55635;50.264;11.918;2023-03-25T08:57:47;94731.97;;;9.57;84.38
40946;BME280;55635;50.264;11.918;2023-03-25T09:00:28;94737.75;;;9.19;87.09
40946;BME280;55635;50.264;11.918;2023-03-25T09:03:09;94738.53;;;9.13;86.89
40946;BME280;55635;50.264;11.918;2023-03-25T09:05:50;94744.78;;;9.73;83.29
40946;BME280;55635;50.264;11.918;2023-03-25T09:08:31;94735.16;;;9.33;87.25
40946;BME280;55635;50.264;11.918;2023-03-25T09:11:12;94746.91;;;8.76;86.99
40946;BME280;55635;50.264;11.918;2023-03-25T09:13:55;94757.34;;;8.91;87.37
40946;BME280;55635;50.264;11.918;2023-03-25T09:16:35;94745.84;;;9.11;85.03
40946;BME280;55635;50.264;11.918;2023-03-25T09:19:16;94745.94;;;9.31;83.55
40946;BME280;55635;50.264;11.918;2023-03-25T09:21:57;94746.44;;;9.74;81.93
40946;BME280;55635;50.264;11.918;2023-03-25T09:24:38;94732.91;;;11.07;81.86
40946;BME280;55635;50.264;11.918;2023-03-25T09:27:20;94730.97;;;10.63;78.99
40946;BME280;55635;50.264;11.918;2023-03-25T09:30:02;94737.16;;;11.08;78.90
40946;BME280;55635;50.264;11.918;2023-03-25T09:32:43;94738.69;;;10.71;75.97
40946;BME280;55635;50.264;11.918;2023-03-25T09:35:24;94761.19;;;10.42;80.57
40946;BME280;55635;50.264;11.918;2023-03-25T09:38:05;94746.28;;;10.48;80.15
40946;BME280;55635;50.264;11.918;2023-03-25T09:40:47;94756.00;;;9.88;80.00
40946;BME280;55635;50.264;11.918;2023-03-25T09:44:03;94754.34;;;9.61;83.32
40946;BME280;55635;50.264;11.918;2023-03-25T09:46:46;94757.25;;;9.85;83.41
40946;BME280;55635;50.264;11.918;2023-03-25T09:49:38;94753.59;;;9.93;82.10
40946;BME280;55635;50.264;11.918;2023-03-25T09:52:33;94749.69;;;9.76;83.15
40946;BME280;55635;50.264;11.918;2023-03-25T09:55:22;94764.78;;;9.89;83.65
40946;BME280;55635;50.264;11.918;2023-03-25T09:58:35;94757.78;;;9.48;84.62
40946;BME280;55635;50.264;11.918;2023-03-25T10:11:12;94760.34;;;10.15;79.63
40946;BME280;55635;50.264;11.918;2023-03-25T10:14:20;94764.59;;;9.97;79.79
40946;BME280;55635;50.264;11.918;2023-03-25T10:26:50;94764.81;;;10.02;79.20
40946;BME280;55635;50.264;11.918;2023-03-25T10:29:45;94760.28;;;9.76;77.84
40946;BME280;55635;50.264;11.918;2023-03-25T10:33:01;94766.03;;;10.65;79.42
40946;BME280;55635;50.264;11.918;2023-03-25T10:35:46;94761.25;;;11.00;75.91
40946;BME280;55635;50.264;11.918;2023-03-25T10:38:30;94754.03;;;11.20;73.03
40946;BME280;55635;50.264;11.918;2023-03-25T10:41:30;94742.28;;;11.91;75.56
40946;BME280;55635;50.264;11.918;2023-03-25T10:44:12;94732.56;;;12.78;73.63
40946;BME280;55635;50.264;11.918;2023-03-25T10:47:05;94742.50;;;12.82;70.76
40946;BME280;55635;50.264;11.918;2023-03-25T10:49:48;94752.06;;;12.47;73.59
40946;BME280;55635;50.264;11.918;2023-03-25T10:52:31;94749.88;;;12.62;70.42
40946;BME280;55635;50.264;11.918;2023-03-25T10:55:26;94752.06;;;12.72;73.55
40946;BME280;55635;50.264;11.918;2023-03-25T10:58:14;94720.84;;;12.79;71.61
40946;BME280;55635;50.264;11.918;2023-03-25T11:00:58;94754.69;;;12.53;71.85
40946;BME280;55635;50.264;11.918;2023-03-25T11:03:40;94740.41;;;11.54;74.57
40946;BME280;55635;50.264;11.918;2023-03-25T11:06:29;94731.19;;;11.63;75.56
40946;BME280;55635;50.264;11.918;2023-03-25T11:09:27;94737.16;;;11.59;75.84
40946;BME280;55635;50.264;11.918;2023-03-25T11:12:18;94735.50;;;11.95;74.51
40946;BME280;55635;50.264;11.918;2023-03-25T11:15:00;94731.97;;;11.77;74.90
40946;BME280;55635;50.264;11.918;2023-03-25T11:17:45;94736.06;;;12.04;71.51
40946;BME280;55635;50.264;11.918;2023-03-25T11:20:34;94724.66;;;12.46;72.65
40946;BME280;55635;50.264;11.918;2023-03-25T11:23:26;94715.00;;;12.27;72.14
40946;BME280;55635;50.264;11.918;2023-03-25T11:26:42;94715.78;;;12.77;71.46
40946;BME280;55635;50.264;11.918;2023-03-25T11:29:25;94717.03;;;12.93;69.29
40946;BME280;55635;50.264;11.918;2023-03-25T11:32:20;94709.94;;;12.69;67.52
40946;BME280;55635;50.264;11.918;2023-03-25T11:35:17;94694.50;;;12.95;68.77
40946;BME280;55635;50.264;11.918;2023-03-25T11:38:19;94694.78;;;13.05;68.68
40946;BME280;55635;50.264;11.918;2023-03-25T11:41:02;94681.50;;;13.24;69.27
40946;BME280;55635;50.264;11.918;2023-03-25T11:43:47;94684.94;;;12.88;70.84
40946;BME280;55635;50.264;11.918;2023-03-25T11:46:30;94675.19;;;13.18;68.37
40946;BME280;55635;50.264;11.918;2023-03-25T11:49:18;94677.19;;;12.50;71.06
40946;BME280;55635;50.264;11.918;2023-03-25T11:52:21;94664.53;;;13.78;67.81
40946;BME280;55635;50.264;11.918;2023-03-25T11:55:04;94663.88;;;13.94;66.49
40946;BME280;55635;50.264;11.918;2023-03-25T11:57:47;94657.56;;;13.77;65.39
40946;BME280;55635;50.264;11.918;2023-03-25T12:00:39;94647.41;;;13.85;66.14
40946;BME280;55635;50.264;11.918;2023-03-25T12:03:26;94648.31;;;13.79;63.83
40946;BME280;55635;50.264;11.918;2023-03-25T12:08:59;94623.00;;;13.17;62.45
40946;BME280;55635;50.264;11.918;2023-03-25T12:15:29;94680.50;;;11.71;73.01
40946;BME280;55635;50.264;11.918;2023-03-25T12:22:43;94709.81;;;10.17;83.52
40946;BME280;55635;50.264;11.918;2023-03-25T12:25:33;94694.81;;;10.88;82.95
40946;BME280;55635;50.264;11.918;2023-03-25T12:34:44;94672.38;;;11.60;78.09
40946;BME280;55635;50.264;11.918;2023-03-25T12:56:24;94810.22;;;6.85;81.98
40946;BME280;55635;50.264;11.918;2023-03-25T13:02:28;94812.97;;;6.63;83.34
40946;BME280;55635;50.264;11.918;2023-03-25T13:05:51;94794.22;;;6.28;84.99
40946;BME280;55635;50.264;11.918;2023-03-25T13:08:58;94773.16;;;6.43;84.22
40946;BME280;55635;50.264;11.918;2023-03-25T13:12:13;94742.09;;;6.97;83.37
40946;BME280;55635;50.264;11.918;2023-03-25T13:21:31;94756.72;;;7.56;83.10
40946;BME280;55635;50.264;11.918;2023-03-25T13:24:51;94741.97;;;8.32;81.96
40946;BME280;55635;50.264;11.918;2023-03-25T13:27:39;94733.16;;;9.41;83.63
40946;BME280;55635;50.264;11.918;2023-03-25T13:30:37;94719.66;;;8.75;79.38
40946;BME280;55635;50.264;11.918;2023-03-25T13:33:27;94718.88;;;8.13;81.34
40946;BME280;55635;50.264;11.918;2023-03-25T13:36:30;94719.34;;;8.92;83.31
40946;BME280;55635;50.264;11.918;2023-03-25T13:39:19;94728.75;;;9.88;79.53
40946;BME280;55635;50.264;11.918;2023-03-25T13:42:14;94717.00;;;11.00;80.50
40946;BME280;55635;50.264;11.918;2023-03-25T13:44:58;94727.56;;;10.36;76.18
40946;BME280;55635;50.264;11.918;2023-03-25T13:50:39;94694.72;;;10.37;80.01
40946;BME280;55635;50.264;11.918;2023-03-25T13:53:54;94708.78;;;10.31;77.75
40946;BME280;55635;50.264;11.918;2023-03-25T14:03:56;94718.16;;;10.47;73.92
40946;BME280;55635;50.264;11.918;2023-03-25T14:07:16;94713.06;;;10.38;76.66
40946;BME280;55635;50.264;11.918;2023-03-25T14:10:37;94704.13;;;11.04;76.78
40946;BME280;55635;50.264;11.918;2023-03-25T14:13:30;94707.03;;;11.40;73.32
40946;BME280;55635;50.264;11.918;2023-03-25T14:16:15;94687.03;;;11.37;73.59
40946;BME280;55635;50.264;11.918;2023-03-25T14:19:48;94693.69;;;11.84;73.03
40946;BME280;55635;50.264;11.918;2023-03-25T14:22:19;94677.75;;;12.09;70.46
40946;BME280;55635;50.264;11.918;2023-03-25T14:25:01;94687.59;;;12.51;70.31
40946;BME280;55635;50.264;11.918;2023-03-25T14:27:48;94697.25;;;12.46;69.00
40946;BME280;55635;50.264;11.918;2023-03-25T14:30:31;94689.06;;;12.47;71.13
40946;BME280;55635;50.264;11.918;2023-03-25T14:33:12;94687.31;;;11.54;70.56
40946;BME280;55635;50.264;11.918;2023-03-25T14:35:55;94687.94;;;12.12;73.30
40946;BME280;55635;50.264;11.918;2023-03-25T14:38:53;94702.38;;;11.67;73.27
40946;BME280;55635;50.264;11.918;2023-03-25T14:44:49;94671.72;;;12.20;71.52
40946;BME280;55635;50.264;11.918;2023-03-25T14:47:34;94673.34;;;12.21;71.85
40946;BME280;55635;50.264;11.918;2023-03-25T14:53:08;94661.41;;;12.30;71.17
40946;BME280;55635;50.264;11.918;2023-03-25T14:55:50;94668.53;;;12.12;71.00
40946;BME280;55635;50.264;11.918;2023-03-25T14:58:31;94670.78;;;11.21;74.67
40946;BME280;55635;50.264;11.918;2023-03-25T15:01:15;94674.56;;;11.00;76.12
40946;BME280;55635;50.264;11.918;2023-03-25T15:04:30;94647.63;;;11.34;75.90
40946;BME280;55635;50.264;11.918;2023-03-25T15:07:17;94665.22;;;11.60;75.13
40946;BME280;55635;50.264;11.918;2023-03-25T15:09:59;94668.47;;;10.22;78.01
40946;BME280;55635;50.264;11.918;2023-03-25T15:12:40;94668.59;;;11.11;77.46
40946;BME280;55635;50.264;11.918;2023-03-25T15:21:14;94670.38;;;11.17;76.11
40946;BME280;55635;50.264;11.918;2023-03-25T15:24:10;94675.16;;;10.31;81.80
40946;BME280;55635;50.264;11.918;2023-03-25T15:26:54;94685.97;;;10.36;80.69
40946;BME280;55635;50.264;11.918;2023-03-25T15:29:57;94680.25;;;10.07;82.86
40946;BME280;55635;50.264;11.918;2023-03-25T15:39:11;94655.63;;;9.73;85.28
40946;BME280;55635;50.264;11.918;2023-03-25T15:48:32;94679.78;;;9.24;87.15
40946;BME280;55635;50.264;11.918;2023-03-25T15:57:28;94662.94;;;9.52;86.92
40946;BME280;55635;50.264;11.918;2023-03-25T16:00:26;94671.50;;;9.80;86.61
40946;BME280;55635;50.264;11.918;2023-03-25T16:03:35;94689.00;;;9.55;85.90
40946;BME280;55635;50.264;11.918;2023-03-25T16:06:18;94667.44;;;9.71;85.67
40946;BME280;55635;50.264;11.918;2023-03-25T16:09:01;94654.81;;;9.73;84.14
40946;BME280;55635;50.264;11.918;2023-03-25T16:11:42;94664.16;;;9.49;85.45
40946;BME280;55635;50.264;11.918;2023-03-25T16:14:30;94658.06;;;9.36;86.38
40946;BME280;55635;50.264;11.918;2023-03-25T16:17:13;94662.72;;;9.40;86.63
40946;BME280;55635;50.264;11.918;2023-03-25T16:19:55;94657.84;;;9.70;85.43
40946;BME280;55635;50.264;11.918;2023-03-25T16:22:36;94675.56;;;9.76;85.26
40946;BME280;55635;50.264;11.918;2023-03-25T16:25:30;94659.91;;;9.81;84.64
40946;BME280;55635;50.264;11.918;2023-03-25T16:28:35;94679.25;;;9.95;84.76
40946;BME280;55635;50.264;11.918;2023-03-25T16:31:32;94667.84;;;9.94;84.81
40946;BME280;55635;50.264;11.918;2023-03-25T16:34:16;94670.69;;;9.93;84.68
40946;BME280;55635;50.264;11.918;2023-03-25T16:36:58;94683.94;;;9.93;83.80
40946;BME280;55635;50.264;11.918;2023-03-25T16:39:39;94673.34;;;9.73;83.30
40946;BME280;55635;50.264;11.918;2023-03-25T16:42:31;94669.47;;;10.21;81.81
40946;BME280;55635;50.264;11.918;2023-03-25T16:45:17;94657.44;;;10.25;79.21
40946;BME280;55635;50.264;11.918;2023-03-25T16:48:04;94649.91;;;10.22;79.23
40946;BME280;55635;50.264;11.918;2023-03-25T16:50:47;94663.31;;;10.41;77.69
40946;BME280;55635;50.264;11.918;2023-03-25T16:53:35;94669.03;;;10.37;78.21
40946;BME280;55635;50.264;11.918;2023-03-25T16:56:26;94680.44;;;10.45;78.45
40946;BME280;55635;50.264;11.918;2023-03-25T16:59:17;94680.03;;;10.54;76.34
40946;BME280;55635;50.264;11.918;2023-03-25T17:02:01;94677.94;;;10.69;75.83